Andersonville, Tennessee
Current Conditions -  °F | °C
As of 5:53 PM on Saturday 20 Dec 2014 (Local Time) from KOQT Reporting Station
Overcast Overcast  
Wind Chill:   Ceiling: 4500
Heat Index:   Visibility: 10mi
Dew Point:   Wind: 0mph
Humidity: 65%   Direction: NA
Pressure: 30.22"   Gusts: NA
Location:  36.2°N, 84.04°W
Report Text: KOQT 202253Z AUTO 00000KT 10SM OVC045 07/01 A3022 RMK AO2 SLP244 T00670006
Loading
Personal Weather Stations






























Interactive Weather Map New forecast layout! Learn more

10-Day Weather Forecast

Advertisements
Track Severe Weather on mobile